Terminal Aerodrome Forecast
Issued by NWS Memphis, TN

Home | Current Version | Previous Version | Text Only | Print | Product List | Glossary On
Versions: 1 2 3 4 5 6 7 8 9 10 11 12
500
FTUS44 KMEG 122338
TAFJBR
TAF
KJBR 122338Z 1300/1324 36012G19KT P6SM SKC
     FM130400 02014G22KT P6SM SKC
      TEMPO 1305/1306 FEW025
     FM131300 04012KT P6SM BKN100=

USA.gov is the U.S. government's official web portal to all federal, state and local government web resources and services.